sensor_id;sensor_type;location;lat;lon;timestamp;pressure;altitude;pressure_sealevel;temperature;humidity
10392;BME280;5242;49.244;6.774;2023-02-01T00:03:53;100381.00;;;4.72;nan
10392;BME280;5242;49.244;6.774;2023-02-01T00:11:44;100374.50;;;4.73;nan
10392;BME280;5242;49.244;6.774;2023-02-01T00:19:36;100370.22;;;4.72;nan
10392;BME280;5242;49.244;6.774;2023-02-01T00:27:28;100345.94;;;4.72;nan
10392;BME280;5242;49.244;6.774;2023-02-01T00:35:19;100326.59;;;4.65;nan
10392;BME280;5242;49.244;6.774;2023-02-01T00:43:11;100328.50;;;4.64;nan
10392;BME280;5242;49.244;6.774;2023-02-01T00:51:09;100332.50;;;4.67;nan
10392;BME280;5242;49.244;6.774;2023-02-01T00:59:01;100332.22;;;4.68;nan
10392;BME280;5242;49.244;6.774;2023-02-01T01:06:53;100334.34;;;4.71;nan
10392;BME280;5242;49.244;6.774;2023-02-01T01:14:45;100317.34;;;4.71;nan
10392;BME280;5242;49.244;6.774;2023-02-01T01:22:37;100311.94;;;4.71;nan
10392;BME280;5242;49.244;6.774;2023-02-01T01:30:28;100322.94;;;4.74;nan
10392;BME280;5242;49.244;6.774;2023-02-01T01:38:20;100320.44;;;4.78;nan
10392;BME280;5242;49.244;6.774;2023-02-01T01:46:16;100334.44;;;4.80;nan
10392;BME280;5242;49.244;6.774;2023-02-01T01:54:13;100346.78;;;4.86;nan
10392;BME280;5242;49.244;6.774;2023-02-01T02:02:09;100349.69;;;4.90;nan
10392;BME280;5242;49.244;6.774;2023-02-01T02:10:03;100341.00;;;4.93;nan
10392;BME280;5242;49.244;6.774;2023-02-01T02:18:18;100338.00;;;4.94;nan
10392;BME280;5242;49.244;6.774;2023-02-01T02:26:25;100329.31;;;4.97;nan
10392;BME280;5242;49.244;6.774;2023-02-01T02:42:58;100301.81;;;4.95;nan
10392;BME280;5242;49.244;6.774;2023-02-01T02:59:34;100274.81;;;4.95;nan
10392;BME280;5242;49.244;6.774;2023-02-01T03:07:55;100270.81;;;4.93;nan
10392;BME280;5242;49.244;6.774;2023-02-01T03:32:02;100272.63;;;4.97;nan
10392;BME280;5242;49.244;6.774;2023-02-01T03:40:06;100278.00;;;4.97;nan
10392;BME280;5242;49.244;6.774;2023-02-01T03:48:00;100286.63;;;4.99;nan
10392;BME280;5242;49.244;6.774;2023-02-01T03:55:54;100281.41;;;5.03;nan
10392;BME280;5242;49.244;6.774;2023-02-01T04:03:46;100278.44;;;5.05;nan
10392;BME280;5242;49.244;6.774;2023-02-01T04:11:38;100278.44;;;5.05;nan
10392;BME280;5242;49.244;6.774;2023-02-01T04:19:29;100271.63;;;5.07;nan
10392;BME280;5242;49.244;6.774;2023-02-01T04:27:21;100276.25;;;5.07;nan
10392;BME280;5242;49.244;6.774;2023-02-01T04:35:13;100285.94;;;5.08;nan
10392;BME280;5242;49.244;6.774;2023-02-01T04:43:05;100301.03;;;5.09;nan
10392;BME280;5242;49.244;6.774;2023-02-01T04:50:57;100305.84;;;5.12;nan
10392;BME280;5242;49.244;6.774;2023-02-01T04:58:49;100299.84;;;5.15;nan
10392;BME280;5242;49.244;6.774;2023-02-01T05:06:41;100308.47;;;5.17;nan
10392;BME280;5242;49.244;6.774;2023-02-01T05:14:33;100296.03;;;5.16;nan
10392;BME280;5242;49.244;6.774;2023-02-01T05:22:24;100291.44;;;5.16;nan
10392;BME280;5242;49.244;6.774;2023-02-01T05:30:17;100287.41;;;5.14;nan
10392;BME280;5242;49.244;6.774;2023-02-01T05:38:08;100286.44;;;5.10;nan
10392;BME280;5242;49.244;6.774;2023-02-01T05:46:00;100311.81;;;5.09;nan
10392;BME280;5242;49.244;6.774;2023-02-01T05:53:52;100313.44;;;5.10;nan
10392;BME280;5242;49.244;6.774;2023-02-01T06:01:44;100321.22;;;5.11;nan
10392;BME280;5242;49.244;6.774;2023-02-01T06:09:36;100333.94;;;5.11;nan
10392;BME280;5242;49.244;6.774;2023-02-01T06:17:28;100348.63;;;5.05;nan
10392;BME280;5242;49.244;6.774;2023-02-01T06:25:20;100327.41;;;4.98;nan
10392;BME280;5242;49.244;6.774;2023-02-01T06:33:13;100338.81;;;4.95;nan
10392;BME280;5242;49.244;6.774;2023-02-01T06:41:07;100353.41;;;4.94;nan
10392;BME280;5242;49.244;6.774;2023-02-01T06:48:58;100365.00;;;4.94;nan
10392;BME280;5242;49.244;6.774;2023-02-01T06:56:50;100357.47;;;5.24;nan
10392;BME280;5242;49.244;6.774;2023-02-01T07:04:42;100361.03;;;5.06;nan
10392;BME280;5242;49.244;6.774;2023-02-01T07:12:34;100374.59;;;5.00;nan
10392;BME280;5242;49.244;6.774;2023-02-01T07:20:26;100385.50;;;4.95;nan
10392;BME280;5242;49.244;6.774;2023-02-01T07:28:18;100391.28;;;4.89;nan
10392;BME280;5242;49.244;6.774;2023-02-01T07:36:12;100389.38;;;4.89;nan
10392;BME280;5242;49.244;6.774;2023-02-01T07:44:04;100382.34;;;4.88;nan
10392;BME280;5242;49.244;6.774;2023-02-01T07:51:56;100386.16;;;4.87;nan
10392;BME280;5242;49.244;6.774;2023-02-01T07:59:48;100384.34;;;4.83;nan
10392;BME280;5242;49.244;6.774;2023-02-01T08:07:58;100405.59;;;5.22;nan
10392;BME280;5242;49.244;6.774;2023-02-01T08:15:51;100405.75;;;5.72;nan
10392;BME280;5242;49.244;6.774;2023-02-01T08:23:43;100420.00;;;5.92;nan
10392;BME280;5242;49.244;6.774;2023-02-01T08:31:35;100442.94;;;5.80;nan
10392;BME280;5242;49.244;6.774;2023-02-01T08:39:27;100419.06;;;5.82;nan
10392;BME280;5242;49.244;6.774;2023-02-01T08:47:19;100418.78;;;6.25;nan
10392;BME280;5242;49.244;6.774;2023-02-01T08:55:12;100415.22;;;6.16;nan
10392;BME280;5242;49.244;6.774;2023-02-01T09:03:04;100408.44;;;6.55;nan
10392;BME280;5242;49.244;6.774;2023-02-01T09:11:05;100405.50;;;8.21;nan
10392;BME280;5242;49.244;6.774;2023-02-01T09:18:57;100410.53;;;10.81;nan
10392;BME280;5242;49.244;6.774;2023-02-01T09:27:09;100428.63;;;11.64;nan
10392;BME280;5242;49.244;6.774;2023-02-01T09:35:01;100426.94;;;11.72;nan
10392;BME280;5242;49.244;6.774;2023-02-01T09:51:04;100454.84;;;12.27;nan
10392;BME280;5242;49.244;6.774;2023-02-01T10:31:26;100485.97;;;7.55;nan
10392;BME280;5242;49.244;6.774;2023-02-01T10:39:20;100485.06;;;7.14;nan
10392;BME280;5242;49.244;6.774;2023-02-01T10:47:13;100476.47;;;6.99;nan
10392;BME280;5242;49.244;6.774;2023-02-01T11:03:36;100448.00;;;6.65;nan
10392;BME280;5242;49.244;6.774;2023-02-01T11:11:30;100449.31;;;6.67;nan
10392;BME280;5242;49.244;6.774;2023-02-01T11:19:21;100464.94;;;6.70;nan
10392;BME280;5242;49.244;6.774;2023-02-01T11:27:17;100451.81;;;6.64;nan
10392;BME280;5242;49.244;6.774;2023-02-01T11:35:19;100445.13;;;6.84;nan
10392;BME280;5242;49.244;6.774;2023-02-01T11:43:14;100447.09;;;6.92;nan
10392;BME280;5242;49.244;6.774;2023-02-01T11:51:50;100450.94;;;7.13;nan
10392;BME280;5242;49.244;6.774;2023-02-01T11:59:53;100433.94;;;7.22;nan
10392;BME280;5242;49.244;6.774;2023-02-01T12:08:12;100425.50;;;7.23;nan
10392;BME280;5242;49.244;6.774;2023-02-01T12:16:17;100430.00;;;7.05;nan
10392;BME280;5242;49.244;6.774;2023-02-01T12:32:34;100422.47;;;6.80;nan
10392;BME280;5242;49.244;6.774;2023-02-01T12:40:45;100410.84;;;6.79;nan
10392;BME280;5242;49.244;6.774;2023-02-01T12:48:54;100404.63;;;6.79;nan
10392;BME280;5242;49.244;6.774;2023-02-01T12:56:51;100389.84;;;6.85;nan
10392;BME280;5242;49.244;6.774;2023-02-01T13:04:56;100378.84;;;6.81;nan
10392;BME280;5242;49.244;6.774;2023-02-01T13:12:57;100361.19;;;6.84;nan
10392;BME280;5242;49.244;6.774;2023-02-01T13:21:05;100344.56;;;6.99;nan
10392;BME280;5242;49.244;6.774;2023-02-01T13:29:02;100334.38;;;7.36;nan
10392;BME280;5242;49.244;6.774;2023-02-01T13:37:10;100343.94;;;7.65;nan
10392;BME280;5242;49.244;6.774;2023-02-01T13:45:28;100340.94;;;7.83;nan
10392;BME280;5242;49.244;6.774;2023-02-01T13:53:32;100318.13;;;7.76;nan
10392;BME280;5242;49.244;6.774;2023-02-01T14:09:19;100322.03;;;8.27;nan
10392;BME280;5242;49.244;6.774;2023-02-01T14:25:17;100342.69;;;8.54;nan
10392;BME280;5242;49.244;6.774;2023-02-01T14:33:22;100333.22;;;8.34;nan
10392;BME280;5242;49.244;6.774;2023-02-01T14:49:15;100349.69;;;7.72;nan
10392;BME280;5242;49.244;6.774;2023-02-01T14:57:15;100346.28;;;7.57;nan
10392;BME280;5242;49.244;6.774;2023-02-01T15:05:29;100352.50;;;7.49;nan
10392;BME280;5242;49.244;6.774;2023-02-01T15:13:26;100345.72;;;7.38;nan
10392;BME280;5242;49.244;6.774;2023-02-01T15:21:21;100353.63;;;7.26;nan
10392;BME280;5242;49.244;6.774;2023-02-01T15:29:23;100360.31;;;7.19;nan
10392;BME280;5242;49.244;6.774;2023-02-01T15:37:20;100345.75;;;7.15;nan
10392;BME280;5242;49.244;6.774;2023-02-01T15:45:18;100358.53;;;7.15;nan
10392;BME280;5242;49.244;6.774;2023-02-01T15:53:20;100355.16;;;7.09;nan
10392;BME280;5242;49.244;6.774;2023-02-01T16:01:13;100356.41;;;7.03;nan
10392;BME280;5242;49.244;6.774;2023-02-01T16:09:13;100349.00;;;6.95;nan
10392;BME280;5242;49.244;6.774;2023-02-01T16:17:05;100362.47;;;6.86;nan
10392;BME280;5242;49.244;6.774;2023-02-01T16:24:57;100368.94;;;6.77;nan
10392;BME280;5242;49.244;6.774;2023-02-01T16:32:52;100381.13;;;6.65;nan
10392;BME280;5242;49.244;6.774;2023-02-01T16:40:47;100388.47;;;6.51;nan
10392;BME280;5242;49.244;6.774;2023-02-01T16:48:41;100393.81;;;6.42;nan
10392;BME280;5242;49.244;6.774;2023-02-01T16:56:33;100390.44;;;6.37;nan
10392;BME280;5242;49.244;6.774;2023-02-01T17:04:27;100403.69;;;6.24;nan
10392;BME280;5242;49.244;6.774;2023-02-01T17:12:27;100402.16;;;6.18;nan
10392;BME280;5242;49.244;6.774;2023-02-01T17:20:23;100405.47;;;6.15;nan
10392;BME280;5242;49.244;6.774;2023-02-01T17:28:15;100410.09;;;6.15;nan
10392;BME280;5242;49.244;6.774;2023-02-01T17:36:13;100413.31;;;6.17;nan
10392;BME280;5242;49.244;6.774;2023-02-01T17:44:08;100404.97;;;6.13;nan
10392;BME280;5242;49.244;6.774;2023-02-01T17:52:01;100405.91;;;6.08;nan
10392;BME280;5242;49.244;6.774;2023-02-01T17:59:53;100396.19;;;5.94;nan
10392;BME280;5242;49.244;6.774;2023-02-01T18:07:45;100397.44;;;5.82;nan
10392;BME280;5242;49.244;6.774;2023-02-01T18:15:37;100392.84;;;5.69;nan
10392;BME280;5242;49.244;6.774;2023-02-01T18:23:30;100393.34;;;5.57;nan
10392;BME280;5242;49.244;6.774;2023-02-01T18:31:27;100403.03;;;5.44;nan
10392;BME280;5242;49.244;6.774;2023-02-01T18:39:20;100419.44;;;5.34;nan
10392;BME280;5242;49.244;6.774;2023-02-01T18:47:12;100413.09;;;5.25;nan
10392;BME280;5242;49.244;6.774;2023-02-01T18:55:04;100419.09;;;5.22;nan
10392;BME280;5242;49.244;6.774;2023-02-01T19:02:56;100420.22;;;5.35;nan
10392;BME280;5242;49.244;6.774;2023-02-01T19:10:48;100419.66;;;5.52;nan
10392;BME280;5242;49.244;6.774;2023-02-01T19:18:39;100434.00;;;5.66;nan
10392;BME280;5242;49.244;6.774;2023-02-01T19:26:31;100433.00;;;5.76;nan
10392;BME280;5242;49.244;6.774;2023-02-01T19:34:23;100434.50;;;5.82;nan
10392;BME280;5242;49.244;6.774;2023-02-01T19:42:15;100432.03;;;5.85;nan
10392;BME280;5242;49.244;6.774;2023-02-01T19:50:09;100439.03;;;5.86;nan
10392;BME280;5242;49.244;6.774;2023-02-01T19:58:01;100441.13;;;5.89;nan
10392;BME280;5242;49.244;6.774;2023-02-01T20:05:57;100434.13;;;5.88;nan
10392;BME280;5242;49.244;6.774;2023-02-01T20:13:49;100444.63;;;5.90;nan
10392;BME280;5242;49.244;6.774;2023-02-01T20:21:42;100440.03;;;5.91;nan
10392;BME280;5242;49.244;6.774;2023-02-01T20:29:34;100429.22;;;5.91;nan
10392;BME280;5242;49.244;6.774;2023-02-01T20:37:26;100440.50;;;5.93;nan
10392;BME280;5242;49.244;6.774;2023-02-01T20:45:18;100430.81;;;5.92;nan
10392;BME280;5242;49.244;6.774;2023-02-01T20:53:10;100442.22;;;5.88;nan
10392;BME280;5242;49.244;6.774;2023-02-01T21:01:13;100431.78;;;5.82;nan
10392;BME280;5242;49.244;6.774;2023-02-01T21:09:05;100421.41;;;5.75;nan
10392;BME280;5242;49.244;6.774;2023-02-01T21:16:57;100420.97;;;5.68;nan
10392;BME280;5242;49.244;6.774;2023-02-01T21:24:50;100423.28;;;5.61;nan
10392;BME280;5242;49.244;6.774;2023-02-01T21:32:42;100414.38;;;5.60;nan
10392;BME280;5242;49.244;6.774;2023-02-01T21:40:34;100427.28;;;5.63;nan
10392;BME280;5242;49.244;6.774;2023-02-01T21:48:26;100410.78;;;5.65;nan
10392;BME280;5242;49.244;6.774;2023-02-01T21:56:18;100413.97;;;5.67;nan
10392;BME280;5242;49.244;6.774;2023-02-01T22:04:10;100420.19;;;5.68;nan
10392;BME280;5242;49.244;6.774;2023-02-01T22:12:02;100417.69;;;5.71;nan
10392;BME280;5242;49.244;6.774;2023-02-01T22:19:54;100415.50;;;5.73;nan
10392;BME280;5242;49.244;6.774;2023-02-01T22:27:46;100423.78;;;5.77;nan
10392;BME280;5242;49.244;6.774;2023-02-01T22:35:58;100424.28;;;5.79;nan
10392;BME280;5242;49.244;6.774;2023-02-01T22:43:51;100435.41;;;5.77;nan
10392;BME280;5242;49.244;6.774;2023-02-01T22:51:42;100455.44;;;5.76;nan
10392;BME280;5242;49.244;6.774;2023-02-01T22:59:35;100440.81;;;5.77;nan
10392;BME280;5242;49.244;6.774;2023-02-01T23:07:26;100462.44;;;5.77;nan
10392;BME280;5242;49.244;6.774;2023-02-01T23:15:18;100454.81;;;5.79;nan
10392;BME280;5242;49.244;6.774;2023-02-01T23:23:10;100468.56;;;5.83;nan
10392;BME280;5242;49.244;6.774;2023-02-01T23:31:07;100459.06;;;5.85;nan
10392;BME280;5242;49.244;6.774;2023-02-01T23:39:00;100459.53;;;5.87;nan
10392;BME280;5242;49.244;6.774;2023-02-01T23:46:52;100464.38;;;5.91;nan
10392;BME280;5242;49.244;6.774;2023-02-01T23:54:44;100456.25;;;5.91;nan
